createdAt,value
2022-09-16T00:00:51.425Z,54.93
2022-09-16T00:03:18.999Z,54.81
2022-09-16T00:05:48.590Z,54.58
2022-09-16T00:08:16.705Z,54.42
2022-09-16T00:10:44.139Z,54.54
2022-09-16T00:13:12.538Z,55.66
2022-09-16T00:15:46.432Z,56.87
2022-09-16T00:18:14.971Z,59.00
2022-09-16T00:20:50.787Z,58.93
2022-09-16T00:23:19.596Z,59.12
2022-09-16T00:25:55.945Z,58.55
2022-09-16T00:28:23.550Z,58.45
2022-09-16T00:30:50.858Z,61.00
2022-09-16T00:33:18.587Z,62.10
2022-09-16T00:35:46.271Z,62.97
2022-09-16T00:38:13.946Z,64.09
2022-09-16T00:40:49.256Z,64.46
2022-09-16T00:43:18.855Z,64.92
2022-09-16T00:45:56.854Z,65.36
2022-09-16T00:48:26.558Z,65.99
2022-09-16T00:51:04.137Z,65.64
2022-09-16T00:53:46.594Z,65.04
2022-09-16T00:56:17.169Z,64.56
2022-09-16T00:58:47.208Z,64.07
2022-09-16T01:01:14.752Z,63.77
2022-09-16T01:03:54.364Z,63.06
2022-09-16T01:06:23.092Z,63.14
2022-09-16T01:08:50.725Z,63.37
2022-09-16T01:11:17.753Z,62.56
2022-09-16T01:13:46.041Z,63.74
2022-09-16T01:16:22.862Z,63.80
2022-09-16T01:19:10.470Z,64.08
2022-09-16T01:22:12.256Z,63.63
2022-09-16T01:25:16.746Z,63.27
2022-09-16T01:27:54.299Z,65.38
2022-09-16T01:30:48.759Z,65.11
2022-09-16T01:33:19.306Z,65.05
2022-09-16T01:36:11.216Z,64.45
2022-09-16T01:38:50.234Z,63.91
2022-09-16T01:41:17.050Z,63.68
2022-09-16T01:43:57.106Z,62.91
2022-09-16T01:46:36.306Z,62.30
2022-09-16T01:49:16.613Z,62.09
2022-09-16T01:51:43.443Z,62.06
2022-09-16T01:54:32.912Z,62.16
2022-09-16T01:57:03.496Z,62.03
2022-09-16T01:59:54.625Z,61.95
2022-09-16T02:02:36.089Z,61.26
2022-09-16T02:05:08.964Z,61.19
2022-09-16T02:07:40.248Z,60.44
2022-09-16T02:10:35.707Z,59.95
2022-09-16T02:13:10.946Z,59.63
2022-09-16T02:15:40.777Z,60.49
2022-09-16T02:18:12.369Z,60.41
2022-09-16T02:20:45.710Z,60.34
2022-09-16T02:23:19.976Z,60.67
2022-09-16T02:25:49.216Z,60.85
2022-09-16T02:28:27.242Z,60.98
2022-09-16T02:30:57.808Z,61.52
2022-09-16T02:33:32.054Z,61.02
2022-09-16T02:36:02.138Z,61.20
2022-09-16T02:38:46.307Z,61.59
2022-09-16T02:41:15.028Z,61.64
2022-09-16T02:43:42.909Z,61.41
2022-09-16T02:46:39.919Z,61.47
2022-09-16T02:49:10.890Z,61.77
2022-09-16T02:52:02.996Z,61.56
2022-09-16T02:54:48.543Z,61.37
2022-09-16T02:57:15.846Z,60.87
2022-09-16T02:59:43.249Z,60.02
2022-09-16T03:02:10.338Z,58.93
2022-09-16T03:04:37.367Z,58.88
2022-09-16T03:07:07.113Z,58.26
2022-09-16T03:09:37.838Z,58.46
2022-09-16T03:12:17.328Z,58.58
2022-09-16T03:15:02.527Z,58.48
2022-09-16T03:18:03.567Z,58.09
2022-09-16T03:20:45.825Z,57.81
2022-09-16T03:23:49.927Z,57.08
2022-09-16T03:26:55.354Z,56.61
2022-09-16T03:29:54.984Z,56.01
2022-09-16T03:32:27.870Z,55.52
2022-09-16T03:35:01.958Z,55.08
2022-09-16T03:37:34.550Z,54.59
2022-09-16T03:40:09.670Z,54.11
2022-09-16T03:42:40.160Z,53.79
2022-09-16T03:45:08.543Z,53.71
2022-09-16T03:47:35.538Z,53.33
2022-09-16T03:50:03.784Z,53.42
2022-09-16T03:52:30.789Z,53.59
2022-09-16T03:54:57.802Z,53.41
2022-09-16T03:57:24.844Z,52.95
2022-09-16T03:59:51.861Z,53.06
2022-09-16T04:02:18.809Z,53.41
2022-09-16T04:04:46.208Z,54.23
2022-09-16T04:07:13.122Z,55.93
2022-09-16T04:09:40.014Z,57.24
2022-09-16T04:12:07.767Z,58.49
2022-09-16T04:14:36.072Z,58.22
2022-09-16T04:17:03.691Z,58.23
2022-09-16T04:19:31.314Z,58.00
2022-09-16T04:21:58.204Z,56.84
2022-09-16T04:24:25.398Z,55.52
2022-09-16T04:26:52.462Z,54.81
2022-09-16T04:29:19.388Z,54.69
2022-09-16T04:31:46.303Z,54.00
2022-09-16T04:34:13.386Z,53.50
2022-09-16T04:36:40.654Z,52.56
2022-09-16T04:39:07.581Z,52.03
2022-09-16T04:41:34.513Z,51.46
2022-09-16T04:44:01.742Z,50.66
2022-09-16T04:46:30.546Z,50.62
2022-09-16T04:48:57.999Z,49.80
2022-09-16T04:51:27.493Z,49.54
2022-09-16T04:53:56.705Z,48.89
2022-09-16T04:56:31.610Z,48.14
2022-09-16T04:59:04.060Z,47.78
2022-09-16T05:01:33.454Z,47.44
2022-09-16T05:04:03.012Z,46.38
2022-09-16T05:06:35.832Z,46.26
2022-09-16T05:09:03.274Z,45.02
2022-09-16T05:11:34.034Z,44.47
2022-09-16T05:14:02.294Z,43.81
2022-09-16T05:16:29.802Z,43.50
2022-09-16T05:18:59.937Z,42.73
2022-09-16T05:21:28.608Z,41.75
2022-09-16T05:23:59.747Z,41.20
2022-09-16T05:26:29.057Z,40.70
2022-09-16T05:28:56.139Z,40.70
2022-09-16T05:31:28.471Z,40.29
2022-09-16T05:34:04.534Z,39.92
2022-09-16T05:36:33.990Z,40.13
2022-09-16T05:39:22.087Z,39.70
2022-09-16T05:41:49.949Z,39.54
2022-09-16T05:44:16.841Z,39.28
2022-09-16T05:46:44.007Z,38.97
2022-09-16T05:49:11.610Z,38.11
2022-09-16T05:51:40.372Z,38.36
2022-09-16T05:54:07.666Z,38.33
2022-09-16T05:56:34.932Z,37.66
2022-09-16T05:59:02.190Z,37.48
2022-09-16T06:01:34.692Z,37.57
2022-09-16T06:04:04.105Z,37.78
2022-09-16T06:06:41.902Z,37.91
2022-09-16T06:09:12.655Z,37.92
2022-09-16T06:11:44.830Z,38.12
2022-09-16T06:14:13.249Z,38.47
2022-09-16T06:16:40.860Z,38.48
2022-09-16T06:19:13.077Z,38.75
2022-09-16T06:21:40.539Z,38.62
2022-09-16T06:24:10.762Z,38.40
2022-09-16T06:26:40.239Z,37.62
2022-09-16T06:29:07.756Z,37.97
2022-09-16T06:31:36.296Z,37.39
2022-09-16T06:34:04.043Z,37.34
2022-09-16T06:36:34.006Z,37.57
2022-09-16T06:39:01.000Z,37.39
2022-09-16T06:41:27.987Z,36.93
2022-09-16T06:43:54.907Z,36.73
2022-09-16T06:46:24.704Z,36.53
2022-09-16T06:48:58.653Z,35.95
2022-09-16T06:51:29.791Z,36.32
2022-09-16T06:54:01.365Z,36.18
2022-09-16T06:56:28.482Z,36.16
2022-09-16T06:58:55.989Z,36.06
2022-09-16T07:01:29.046Z,35.91
2022-09-16T07:03:58.440Z,35.87
2022-09-16T07:06:57.462Z,34.95
2022-09-16T07:09:17.141Z,34.94
2022-09-16T07:11:44.485Z,33.69
2022-09-16T07:14:11.487Z,33.48
2022-09-16T07:16:38.475Z,32.78
2022-09-16T07:19:06.085Z,32.52
2022-09-16T07:21:33.042Z,32.64
2022-09-16T07:24:02.666Z,32.94
2022-09-16T07:26:35.311Z,33.12
2022-09-16T07:29:04.392Z,32.64
2022-09-16T07:31:33.695Z,32.69
2022-09-16T07:34:04.389Z,32.80
2022-09-16T07:36:37.679Z,32.25
2022-09-16T07:39:05.287Z,32.44
2022-09-16T07:41:37.556Z,32.02
2022-09-16T07:44:06.162Z,31.58
2022-09-16T07:46:35.028Z,31.78
2022-09-16T07:49:03.780Z,31.71
2022-09-16T07:51:31.491Z,31.45
2022-09-16T07:54:03.687Z,31.21
2022-09-16T07:56:34.613Z,30.89
2022-09-16T07:59:03.042Z,31.20
2022-09-16T08:01:31.414Z,30.96
2022-09-16T08:03:59.658Z,31.73
2022-09-16T08:06:29.675Z,31.63
2022-09-16T08:09:10.189Z,31.45
2022-09-16T08:11:42.512Z,30.99
2022-09-16T08:14:09.451Z,30.97
2022-09-16T08:16:36.333Z,31.04
2022-09-16T08:19:03.645Z,30.76
2022-09-16T08:21:31.194Z,31.41
2022-09-16T08:23:58.414Z,30.89
2022-09-16T08:26:26.167Z,31.87
2022-09-16T08:29:10.144Z,31.82
2022-09-16T08:31:38.610Z,31.48
2022-09-16T08:34:05.700Z,32.07
2022-09-16T08:36:33.950Z,32.00
2022-09-16T08:39:01.505Z,31.68
2022-09-16T08:42:00.378Z,31.79
2022-09-16T08:45:01.062Z,31.63
2022-09-16T08:47:37.279Z,31.34
2022-09-16T08:50:11.403Z,30.80
2022-09-16T08:52:41.064Z,30.92
2022-09-16T08:55:39.586Z,30.60
2022-09-16T08:58:12.642Z,31.26
2022-09-16T09:00:41.372Z,30.77
2022-09-16T09:03:36.296Z,30.92
2022-09-16T09:06:14.537Z,31.10
2022-09-16T09:09:06.002Z,30.70
2022-09-16T09:11:44.912Z,30.64
2022-09-16T09:14:20.677Z,30.44
2022-09-16T09:17:26.042Z,29.46
2022-09-16T09:20:13.969Z,30.22
2022-09-16T09:22:45.883Z,30.49
2022-09-16T09:25:25.206Z,30.51
2022-09-16T09:28:23.597Z,30.25
2022-09-16T09:31:10.570Z,29.90
2022-09-16T09:33:56.094Z,29.68
2022-09-16T09:36:58.424Z,29.61
2022-09-16T09:39:58.148Z,30.17
2022-09-16T09:42:30.737Z,29.77
2022-09-16T10:16:52.386Z,31.19
2022-09-16T10:19:25.718Z,30.74
2022-09-16T10:22:09.119Z,30.60
2022-09-16T10:24:39.174Z,30.21
2022-09-16T10:27:22.138Z,30.15
2022-09-16T10:30:28.959Z,29.43
2022-09-16T10:33:02.492Z,29.33
2022-09-16T10:35:38.168Z,29.71
2022-09-16T10:38:19.053Z,29.54
2022-09-16T10:40:58.106Z,29.78
2022-09-16T10:43:26.479Z,29.43
2022-09-16T10:45:54.916Z,29.02
2022-09-16T10:48:28.358Z,29.30
2022-09-16T10:51:04.060Z,29.46
2022-09-16T10:53:45.214Z,29.71
2022-09-16T10:56:22.886Z,29.47
2022-09-16T10:58:50.438Z,29.27
2022-09-16T11:01:18.599Z,29.23
2022-09-16T11:04:00.940Z,28.79
2022-09-16T11:06:54.689Z,28.98
2022-09-16T11:09:40.136Z,28.58
2022-09-16T11:12:35.610Z,28.75
2022-09-16T11:15:34.623Z,28.59
2022-09-16T11:18:13.560Z,28.32
2022-09-16T11:21:02.143Z,28.25
2022-09-16T11:23:53.786Z,28.42
2022-09-16T11:26:23.657Z,28.43
2022-09-16T11:28:59.408Z,28.38
2022-09-16T11:31:44.968Z,28.42
2022-09-16T11:34:33.359Z,28.23
2022-09-16T11:37:21.196Z,28.70
2022-09-16T11:40:09.902Z,28.82
2022-09-16T11:43:15.591Z,28.71
2022-09-16T11:45:58.901Z,28.69
2022-09-16T11:48:35.408Z,29.05
2022-09-16T11:51:43.754Z,28.68
2022-09-16T11:54:19.320Z,28.59
2022-09-16T11:57:02.842Z,28.38
2022-09-16T11:59:45.236Z,28.56
2022-09-16T12:02:24.488Z,28.28
2022-09-16T12:04:56.226Z,28.69
2022-09-16T12:07:38.088Z,28.40
2022-09-16T12:10:32.469Z,28.37
2022-09-16T12:13:05.957Z,28.50
2022-09-16T12:15:40.502Z,28.69
2022-09-16T12:18:19.404Z,28.71
2022-09-16T12:21:06.113Z,28.83
2022-09-16T12:23:39.379Z,30.38
2022-09-16T12:26:09.619Z,29.93
2022-09-16T12:28:44.213Z,30.09
2022-09-16T12:31:23.931Z,29.68
2022-09-16T12:34:04.695Z,28.82
2022-09-16T12:36:36.839Z,29.17
2022-09-16T12:39:04.094Z,29.01
2022-09-16T12:42:08.962Z,28.89
2022-09-16T12:44:59.215Z,29.12
2022-09-16T12:47:40.376Z,28.85
2022-09-16T12:50:37.477Z,29.05
2022-09-16T12:53:10.266Z,28.66
2022-09-16T12:55:55.375Z,28.87
2022-09-16T12:58:49.691Z,29.25
2022-09-16T13:01:30.312Z,29.62
2022-09-16T13:04:11.009Z,29.99
2022-09-16T13:06:45.199Z,30.29
2022-09-16T13:09:25.708Z,29.99
2022-09-16T13:14:54.636Z,29.88
2022-09-16T13:17:52.845Z,30.06
2022-09-16T13:20:28.429Z,29.91
2022-09-16T13:22:55.357Z,29.97
2022-09-16T13:25:26.758Z,30.16
2022-09-16T13:28:19.729Z,30.29
2022-09-16T13:30:46.910Z,30.19
2022-09-16T13:33:13.817Z,30.47
2022-09-16T13:35:49.935Z,30.16
2022-09-16T13:38:19.629Z,30.59
2022-09-16T13:41:02.509Z,30.84
2022-09-16T13:43:57.488Z,30.75
2022-09-16T13:46:33.757Z,30.56
2022-09-16T13:49:04.188Z,30.94
2022-09-16T13:51:36.202Z,30.57
2022-09-16T13:54:04.792Z,30.82
2022-09-16T13:57:22.772Z,30.69
2022-09-16T14:00:10.941Z,31.11
2022-09-16T14:02:56.804Z,31.43
2022-09-16T14:06:00.487Z,31.03
2022-09-16T14:09:11.896Z,31.77
2022-09-16T14:12:04.467Z,31.14
2022-09-16T14:14:50.348Z,31.48
2022-09-16T14:17:22.787Z,31.98
2022-09-16T14:19:54.329Z,32.02
2022-09-16T14:22:23.227Z,32.50
2022-09-16T14:24:56.640Z,33.09
2022-09-16T14:27:39.815Z,33.24
2022-09-16T14:30:15.357Z,33.42
2022-09-16T14:32:42.801Z,33.90
2022-09-16T14:35:16.465Z,34.22
2022-09-16T14:37:46.995Z,34.10
2022-09-16T14:40:16.887Z,34.36
2022-09-16T14:42:58.483Z,34.65
2022-09-16T14:45:25.560Z,34.29
2022-09-16T14:47:55.710Z,34.32
2022-09-16T14:50:32.431Z,34.18
2022-09-16T14:53:02.073Z,34.46
2022-09-16T14:55:31.415Z,34.59
2022-09-16T14:58:00.044Z,34.48
2022-09-16T15:00:45.429Z,34.75
2022-09-16T15:03:18.363Z,34.87
2022-09-16T15:05:47.471Z,34.99
2022-09-16T15:08:30.566Z,35.33
2022-09-16T15:11:01.810Z,35.75
2022-09-16T15:13:34.963Z,43.64
2022-09-16T15:16:04.458Z,51.21
2022-09-16T15:18:34.336Z,65.80
2022-09-16T15:21:07.709Z,74.81
2022-09-16T15:23:37.465Z,82.74
2022-09-16T15:26:18.034Z,88.41
2022-09-16T15:28:54.487Z,94.44
2022-09-16T15:31:32.807Z,97.04
2022-09-16T15:34:02.402Z,99.85
2022-09-16T15:36:41.357Z,100.00
2022-09-16T15:39:35.770Z,100.00
2022-09-16T15:42:25.779Z,100.00
2022-09-16T15:45:00.348Z,100.00
2022-09-16T15:47:32.110Z,100.00
2022-09-16T15:50:04.666Z,100.00
2022-09-16T15:52:35.717Z,100.00
2022-09-16T15:55:06.585Z,100.00
2022-09-16T15:57:39.870Z,100.00
2022-09-16T16:00:14.021Z,100.00
2022-09-16T16:02:44.717Z,100.00
2022-09-16T16:05:19.876Z,100.00
2022-09-16T16:07:53.125Z,100.00
2022-09-16T16:10:21.804Z,100.00
2022-09-16T16:12:50.359Z,100.00
2022-09-16T16:15:21.073Z,100.00
2022-09-16T16:17:49.833Z,100.00
2022-09-16T16:20:18.190Z,100.00
2022-09-16T16:22:45.798Z,100.00
2022-09-16T16:25:13.976Z,100.00
2022-09-16T16:27:41.154Z,98.27
2022-09-16T16:30:09.218Z,96.83
2022-09-16T16:32:38.641Z,95.83
2022-09-16T16:35:06.155Z,93.33
2022-09-16T16:37:45.946Z,94.58
2022-09-16T16:40:15.079Z,95.35
2022-09-16T16:42:43.883Z,96.46
2022-09-16T16:45:14.465Z,94.00
2022-09-16T16:47:42.321Z,95.01
2022-09-16T16:50:10.069Z,93.54
2022-09-16T16:52:37.371Z,86.88
2022-09-16T16:55:05.206Z,90.74
2022-09-16T16:57:32.241Z,90.52
2022-09-16T16:59:59.170Z,92.91
2022-09-16T17:02:26.457Z,91.77
2022-09-16T17:04:53.505Z,96.01
2022-09-16T17:07:28.192Z,98.39
2022-09-16T17:09:57.598Z,95.07
2022-09-16T17:12:25.245Z,92.63
2022-09-16T17:14:52.511Z,98.40
2022-09-16T17:17:19.473Z,98.55
2022-09-16T17:19:46.615Z,98.81
2022-09-16T17:22:13.579Z,100.00
2022-09-16T17:24:40.815Z,95.67
2022-09-16T17:27:07.798Z,88.41
2022-09-16T17:29:34.822Z,88.36
2022-09-16T17:32:03.393Z,92.60
2022-09-16T17:34:31.172Z,95.19
2022-09-16T17:36:58.511Z,93.77
2022-09-16T17:39:26.080Z,95.49
2022-09-16T17:41:56.793Z,98.35
2022-09-16T17:44:24.744Z,98.07
2022-09-16T17:46:51.977Z,94.29
2022-09-16T17:49:23.995Z,91.13
2022-09-16T17:51:53.560Z,89.15
2022-09-16T17:54:21.286Z,89.29
2022-09-16T17:56:48.764Z,87.81
2022-09-16T17:59:17.799Z,88.46
2022-09-16T18:01:45.652Z,87.93
2022-09-16T18:04:13.353Z,85.80
2022-09-16T18:06:45.902Z,82.38
2022-09-16T18:09:14.191Z,81.79
2022-09-16T18:11:41.188Z,84.54
2022-09-16T18:14:12.227Z,86.15
2022-09-16T18:16:40.181Z,85.73
2022-09-16T18:19:07.467Z,84.41
2022-09-16T18:21:35.116Z,82.48
2022-09-16T18:24:03.451Z,78.91
2022-09-16T18:26:31.941Z,80.11
2022-09-16T18:29:10.810Z,77.53
2022-09-16T18:31:44.696Z,75.49
2022-09-16T18:34:12.894Z,72.37
2022-09-16T18:36:40.529Z,71.09
2022-09-16T18:39:11.076Z,69.84
2022-09-16T18:41:39.914Z,69.84
2022-09-16T18:44:12.543Z,69.59
2022-09-16T18:46:39.871Z,69.11
2022-09-16T18:49:07.276Z,68.84
2022-09-16T18:51:40.693Z,68.63
2022-09-16T18:54:11.846Z,69.06
2022-09-16T18:56:40.179Z,69.40
2022-09-16T18:59:22.594Z,69.09
2022-09-16T19:01:53.166Z,68.75
2022-09-16T19:04:23.032Z,71.37
2022-09-16T19:06:52.541Z,72.07
2022-09-16T19:09:22.132Z,74.04
2022-09-16T19:11:49.666Z,70.86
2022-09-16T19:14:16.746Z,70.30
2022-09-16T19:16:45.751Z,70.85
2022-09-16T19:19:14.808Z,66.81
2022-09-16T19:21:43.246Z,64.74
2022-09-16T19:24:15.970Z,64.13
2022-09-16T19:26:44.356Z,64.70
2022-09-16T19:29:12.779Z,64.63
2022-09-16T19:31:41.327Z,64.80
2022-09-16T19:34:08.485Z,66.93
2022-09-16T19:36:36.378Z,66.13
2022-09-16T19:39:05.387Z,68.80
2022-09-16T19:41:34.528Z,69.19
2022-09-16T19:44:03.819Z,70.52
2022-09-16T19:46:35.024Z,69.96
2022-09-16T19:49:02.620Z,68.33
2022-09-16T19:51:29.517Z,71.82
2022-09-16T19:53:58.454Z,71.09
2022-09-16T19:56:27.658Z,66.85
2022-09-16T19:58:55.127Z,69.66
2022-09-16T20:01:27.503Z,64.18
2022-09-16T20:03:55.059Z,63.51
2022-09-16T20:06:31.932Z,63.89
2022-09-16T20:09:00.442Z,63.27
2022-09-16T20:11:30.025Z,62.69
2022-09-16T20:14:02.546Z,62.38
2022-09-16T20:16:35.661Z,62.79
2022-09-16T20:19:09.041Z,67.39
2022-09-16T20:21:36.994Z,68.01
2022-09-16T20:24:06.323Z,67.96
2022-09-16T20:26:34.572Z,64.35
2022-09-16T20:29:02.116Z,66.58
2022-09-16T20:31:31.788Z,67.95
2022-09-16T20:33:59.265Z,70.19
2022-09-16T20:36:27.951Z,71.62
2022-09-16T20:38:54.819Z,71.57
2022-09-16T20:41:24.132Z,72.44
2022-09-16T20:43:52.268Z,82.02
2022-09-16T20:46:30.565Z,84.50
2022-09-16T20:49:00.658Z,84.78
2022-09-16T20:51:31.574Z,88.39
2022-09-16T20:54:07.456Z,93.71
2022-09-16T20:56:38.682Z,93.00
2022-09-16T20:59:10.072Z,92.13
2022-09-16T21:01:38.437Z,92.48
2022-09-16T21:04:08.338Z,92.76
2022-09-16T21:06:36.566Z,94.75
2022-09-16T21:09:06.894Z,93.64
2022-09-16T21:11:33.879Z,92.19
2022-09-16T21:14:08.954Z,91.45
2022-09-16T21:16:37.780Z,88.93
2022-09-16T21:19:09.543Z,88.79
2022-09-16T21:21:38.803Z,85.72
2022-09-16T21:24:07.371Z,84.46
2022-09-16T21:26:36.391Z,83.63
2022-09-16T21:29:08.755Z,80.22
2022-09-16T21:31:38.285Z,79.30
2022-09-16T21:34:06.707Z,78.39
2022-09-16T21:36:35.478Z,78.21
2022-09-16T21:39:02.597Z,77.83
2022-09-16T21:41:29.749Z,78.17
2022-09-16T21:43:57.816Z,77.47
2022-09-16T21:46:31.896Z,77.20
2022-09-16T21:49:02.241Z,76.63
2022-09-16T21:51:36.644Z,76.02
2022-09-16T21:54:08.806Z,76.01
2022-09-16T21:56:40.645Z,76.33
2022-09-16T21:59:08.874Z,75.21
2022-09-16T22:01:37.492Z,74.59
2022-09-16T22:04:16.282Z,74.36
2022-09-16T22:06:44.328Z,74.66
2022-09-16T22:09:11.981Z,74.33
2022-09-16T22:11:43.704Z,73.99
2022-09-16T22:14:13.700Z,73.90
2022-09-16T22:16:41.542Z,74.02
2022-09-16T22:19:11.719Z,74.87
2022-09-16T22:21:43.107Z,76.73
2022-09-16T22:24:10.860Z,76.13
2022-09-16T22:26:38.857Z,75.84
2022-09-16T22:29:06.589Z,76.66
2022-09-16T22:31:34.176Z,76.88
2022-09-16T22:34:02.185Z,77.57
2022-09-16T22:36:34.074Z,77.18
2022-09-16T22:39:18.394Z,77.77
2022-09-16T22:41:45.879Z,78.72
2022-09-16T22:44:13.630Z,79.49
2022-09-16T22:46:43.636Z,79.28
2022-09-16T22:49:12.121Z,79.92
2022-09-16T22:51:39.577Z,80.63
2022-09-16T22:54:08.366Z,80.53
2022-09-16T22:56:35.787Z,82.42
2022-09-16T22:59:05.768Z,83.98
2022-09-16T23:01:35.764Z,82.83
2022-09-16T23:04:04.603Z,82.59
2022-09-16T23:06:33.637Z,82.32
2022-09-16T23:09:01.071Z,82.65
2022-09-16T23:11:30.673Z,82.06
2022-09-16T23:13:58.250Z,82.37
2022-09-16T23:16:30.297Z,82.23
2022-09-16T23:19:00.497Z,81.91
2022-09-16T23:21:28.154Z,82.00
2022-09-16T23:23:57.216Z,82.20
2022-09-16T23:26:26.920Z,82.78
2022-09-16T23:28:55.617Z,84.32
2022-09-16T23:31:25.075Z,83.77
2022-09-16T23:33:53.682Z,83.46
2022-09-16T23:36:21.483Z,82.93
2022-09-16T23:38:48.599Z,82.48
2022-09-16T23:41:26.718Z,83.28
2022-09-16T23:43:54.840Z,84.97
2022-09-16T23:46:23.759Z,84.39
2022-09-16T23:48:54.003Z,83.47
2022-09-16T23:51:25.983Z,83.28
2022-09-16T23:53:55.646Z,84.26
2022-09-16T23:56:22.730Z,83.11
2022-09-16T23:58:51.145Z,82.63
